createdAt,value
2023-02-26T00:02:13.284Z,90.70
2023-02-26T00:04:43.680Z,90.70
2023-02-26T00:07:12.980Z,90.60
2023-02-26T00:09:42.217Z,90.60
2023-02-26T00:12:14.400Z,90.60
2023-02-26T00:14:44.332Z,90.50
2023-02-26T00:17:42.419Z,90.50
2023-02-26T00:20:13.908Z,90.50
2023-02-26T00:22:43.751Z,90.40
2023-02-26T00:25:13.352Z,90.40
2023-02-26T00:27:43.174Z,90.30
2023-02-26T00:30:13.842Z,90.20
2023-02-26T00:32:43.927Z,90.10
2023-02-26T00:35:17.718Z,90.00
2023-02-26T00:38:13.563Z,89.70
2023-02-26T00:40:51.257Z,89.50
2023-02-26T00:43:29.483Z,89.20
2023-02-26T00:46:21.039Z,89.00
2023-02-26T00:49:12.795Z,88.60
2023-02-26T00:52:00.177Z,88.50
2023-02-26T00:54:32.500Z,88.10
2023-02-26T00:57:05.221Z,87.50
2023-02-26T00:59:34.558Z,87.20
2023-02-26T01:02:03.672Z,86.60
2023-02-26T01:04:39.452Z,86.40
2023-02-26T01:07:11.670Z,85.30
2023-02-26T01:09:43.633Z,85.40
2023-02-26T01:12:18.418Z,85.30
2023-02-26T01:14:48.458Z,84.90
2023-02-26T01:17:26.284Z,84.50
2023-02-26T01:20:11.151Z,84.20
2023-02-26T01:23:10.832Z,83.80
2023-02-26T01:26:15.110Z,83.40
2023-02-26T01:28:44.793Z,83.40
2023-02-26T01:32:01.608Z,83.30
2023-02-26T01:34:56.647Z,82.90
2023-02-26T01:38:15.409Z,82.60
2023-02-26T01:41:11.235Z,83.30
2023-02-26T01:44:12.107Z,83.40
2023-02-26T01:47:26.712Z,83.10
2023-02-26T01:49:56.537Z,82.90
2023-02-26T01:52:51.941Z,82.70
2023-02-26T01:55:28.605Z,82.30
2023-02-26T01:58:02.425Z,82.00
2023-02-26T02:00:33.312Z,81.60
2023-02-26T02:03:03.412Z,81.70
2023-02-26T02:05:49.317Z,81.80
2023-02-26T02:08:20.033Z,81.60
2023-02-26T02:10:52.271Z,81.40
2023-02-26T02:13:39.213Z,80.80
2023-02-26T02:16:31.103Z,80.80
2023-02-26T02:19:15.116Z,80.20
2023-02-26T02:22:16.011Z,79.60
2023-02-26T02:25:15.360Z,78.70
2023-02-26T02:27:59.566Z,77.80
2023-02-26T02:30:57.826Z,78.40
2023-02-26T02:33:46.063Z,77.30
2023-02-26T02:36:46.233Z,77.70
2023-02-26T02:39:51.425Z,76.60
2023-02-26T02:42:48.376Z,76.30
2023-02-26T02:45:28.719Z,76.10
2023-02-26T02:48:28.155Z,75.40
2023-02-26T02:51:18.824Z,75.60
2023-02-26T02:53:58.945Z,75.30
2023-02-26T02:56:53.178Z,75.10
2023-02-26T02:59:49.418Z,75.00
2023-02-26T03:03:05.774Z,74.90
2023-02-26T03:05:35.039Z,74.40
2023-02-26T03:08:21.929Z,75.00
2023-02-26T03:10:51.296Z,73.60
2023-02-26T03:13:26.181Z,73.50
2023-02-26T03:16:27.890Z,73.60
2023-02-26T03:19:19.726Z,73.60
2023-02-26T03:22:48.541Z,73.20
2023-02-26T03:25:48.554Z,73.60
2023-02-26T03:28:34.713Z,73.40
2023-02-26T03:31:27.163Z,73.60
2023-02-26T03:34:10.205Z,72.50
2023-02-26T03:37:03.789Z,72.20
2023-02-26T03:39:53.973Z,72.20
2023-02-26T03:42:52.517Z,72.20
2023-02-26T03:45:30.430Z,72.20
2023-02-26T03:48:04.198Z,71.90
2023-02-26T03:50:49.661Z,72.30
2023-02-26T03:53:30.945Z,71.90
2023-02-26T03:56:12.943Z,71.40
2023-02-26T03:58:42.183Z,71.40
2023-02-26T04:01:21.476Z,70.40
2023-02-26T04:04:03.307Z,70.90
2023-02-26T04:06:34.379Z,70.00
2023-02-26T04:09:07.170Z,69.90
2023-02-26T04:11:38.412Z,68.90
2023-02-26T04:14:07.610Z,69.80
2023-02-26T04:16:36.727Z,69.10
2023-02-26T04:19:06.017Z,68.90
2023-02-26T04:21:35.492Z,68.50
2023-02-26T04:24:06.009Z,69.10
2023-02-26T04:26:35.134Z,69.10
2023-02-26T04:29:04.301Z,68.40
2023-02-26T04:31:33.601Z,68.60
2023-02-26T04:34:02.812Z,68.30
2023-02-26T04:36:32.525Z,67.70
2023-02-26T04:39:02.392Z,68.00
2023-02-26T04:41:31.546Z,68.00
2023-02-26T04:44:00.773Z,67.60
2023-02-26T04:46:30.552Z,68.00
2023-02-26T04:48:59.916Z,66.90
2023-02-26T04:51:29.185Z,67.00
2023-02-26T04:53:59.207Z,67.60
2023-02-26T04:56:29.376Z,66.80
2023-02-26T04:58:58.488Z,66.70
2023-02-26T05:01:28.098Z,65.90
2023-02-26T05:03:57.361Z,65.30
2023-02-26T05:06:27.114Z,65.00
2023-02-26T05:08:56.455Z,65.20
2023-02-26T05:11:25.765Z,65.50
2023-02-26T05:13:55.318Z,65.40
2023-02-26T05:16:24.765Z,65.30
2023-02-26T05:18:54.087Z,65.00
2023-02-26T05:21:25.877Z,64.60
2023-02-26T05:23:55.386Z,65.20
2023-02-26T05:26:25.339Z,64.90
2023-02-26T05:28:54.850Z,63.90
2023-02-26T05:31:24.272Z,63.70
2023-02-26T05:33:53.496Z,63.30
2023-02-26T05:36:22.821Z,63.00
2023-02-26T05:38:52.141Z,62.90
2023-02-26T05:41:21.445Z,63.10
2023-02-26T05:43:50.798Z,62.60
2023-02-26T05:46:19.977Z,63.20
2023-02-26T05:48:49.796Z,62.30
2023-02-26T05:51:19.038Z,62.00
2023-02-26T05:53:48.429Z,62.80
2023-02-26T05:56:18.001Z,63.40
2023-02-26T05:58:47.559Z,62.10
2023-02-26T06:01:17.200Z,62.20
2023-02-26T06:03:47.027Z,62.30
2023-02-26T06:06:19.426Z,61.70
2023-02-26T06:08:49.550Z,61.40
2023-02-26T06:11:20.838Z,61.50
2023-02-26T06:13:50.705Z,61.70
2023-02-26T06:16:21.455Z,61.70
2023-02-26T06:18:51.325Z,62.30
2023-02-26T06:21:21.106Z,61.30
2023-02-26T06:23:50.289Z,60.90
2023-02-26T06:26:20.298Z,60.70
2023-02-26T06:28:50.739Z,61.20
2023-02-26T06:31:20.209Z,61.00
2023-02-26T06:33:49.446Z,61.30
2023-02-26T06:36:18.648Z,62.10
2023-02-26T06:38:47.977Z,61.70
2023-02-26T06:41:17.165Z,61.10
2023-02-26T06:43:46.790Z,60.30
2023-02-26T06:46:16.878Z,60.00
2023-02-26T06:48:46.279Z,60.30
2023-02-26T06:51:15.548Z,60.30
2023-02-26T06:53:44.710Z,59.80
2023-02-26T06:56:13.885Z,59.10
2023-02-26T06:58:43.232Z,59.50
2023-02-26T07:01:12.465Z,59.50
2023-02-26T07:03:41.702Z,60.50
2023-02-26T07:06:38.288Z,60.20
2023-02-26T07:09:03.816Z,60.00
2023-02-26T07:11:33.165Z,59.70
2023-02-26T07:14:02.531Z,59.30
2023-02-26T07:16:31.739Z,58.60
2023-02-26T07:19:01.005Z,59.30
2023-02-26T07:21:30.231Z,59.40
2023-02-26T07:23:59.425Z,58.90
2023-02-26T07:26:28.790Z,58.60
2023-02-26T07:28:58.032Z,58.80
2023-02-26T07:31:27.362Z,59.40
2023-02-26T07:33:56.829Z,58.70
2023-02-26T07:36:26.476Z,58.70
2023-02-26T07:38:55.922Z,59.30
2023-02-26T07:41:26.230Z,59.20
2023-02-26T07:43:55.511Z,59.00
2023-02-26T07:46:25.357Z,58.40
2023-02-26T07:48:54.848Z,58.30
2023-02-26T07:51:24.513Z,58.30
2023-02-26T07:53:54.056Z,58.70
2023-02-26T07:56:23.543Z,58.10
2023-02-26T07:58:52.871Z,58.70
2023-02-26T08:01:22.088Z,58.10
2023-02-26T08:03:51.401Z,58.90
2023-02-26T08:06:20.607Z,58.50
2023-02-26T08:08:49.838Z,58.70
2023-02-26T08:11:19.117Z,58.50
2023-02-26T08:13:48.633Z,58.60
2023-02-26T08:16:17.893Z,58.30
2023-02-26T08:18:47.276Z,58.00
2023-02-26T08:21:16.520Z,57.80
2023-02-26T08:23:45.786Z,59.20
2023-02-26T08:26:18.019Z,58.10
2023-02-26T08:28:48.496Z,58.10
2023-02-26T08:31:18.776Z,58.10
2023-02-26T08:33:48.340Z,58.30
2023-02-26T08:36:17.528Z,57.80
2023-02-26T08:38:46.695Z,57.70
2023-02-26T08:41:15.997Z,58.10
2023-02-26T08:43:45.640Z,58.20
2023-02-26T08:46:15.234Z,58.10
2023-02-26T08:48:44.422Z,58.20
2023-02-26T08:51:13.709Z,58.00
2023-02-26T08:53:42.844Z,58.20
2023-02-26T08:56:12.007Z,58.40
2023-02-26T08:58:41.355Z,58.60
2023-02-26T09:01:11.529Z,58.60
2023-02-26T09:03:40.724Z,58.70
2023-02-26T09:06:09.933Z,58.80
2023-02-26T09:08:39.158Z,58.80
2023-02-26T09:11:08.270Z,58.40
2023-02-26T09:13:37.354Z,58.30
2023-02-26T09:16:07.210Z,58.30
2023-02-26T09:18:36.569Z,58.30
2023-02-26T09:21:06.074Z,58.70
2023-02-26T09:23:35.264Z,58.70
2023-02-26T09:26:04.982Z,58.70
2023-02-26T09:28:34.126Z,58.70
2023-02-26T09:31:03.690Z,58.80
2023-02-26T09:33:32.870Z,59.10
2023-02-26T09:36:05.873Z,59.00
2023-02-26T09:38:36.858Z,59.00
2023-02-26T09:41:16.303Z,58.70
2023-02-26T09:44:16.939Z,59.30
2023-02-26T09:47:09.852Z,60.00
2023-02-26T09:50:20.884Z,59.60
2023-02-26T09:53:32.449Z,59.90
2023-02-26T09:56:14.945Z,59.70
2023-02-26T09:58:46.566Z,59.50
2023-02-26T10:01:28.025Z,59.50
2023-02-26T10:04:19.423Z,59.80
2023-02-26T10:07:28.436Z,60.20
2023-02-26T10:10:45.993Z,60.60
2023-02-26T10:13:57.112Z,61.20
2023-02-26T10:16:34.615Z,61.20
2023-02-26T10:19:21.490Z,61.10
2023-02-26T10:22:06.322Z,61.00
2023-02-26T10:24:55.737Z,61.10
2023-02-26T10:28:02.721Z,61.40
2023-02-26T10:30:59.686Z,61.70
2023-02-26T10:34:26.340Z,62.00
2023-02-26T10:37:05.385Z,62.00
2023-02-26T10:40:12.450Z,62.30
2023-02-26T10:42:48.876Z,62.60
2023-02-26T10:46:08.884Z,62.50
2023-02-26T10:49:22.531Z,62.70
2023-02-26T10:51:53.976Z,62.90
2023-02-26T10:55:43.173Z,63.20
2023-02-26T10:58:19.085Z,63.30
2023-02-26T11:00:54.712Z,63.30
2023-02-26T11:03:38.348Z,63.50
2023-02-26T11:06:08.723Z,63.70
2023-02-26T11:08:45.059Z,64.00
2023-02-26T11:11:38.630Z,64.30
2023-02-26T11:14:09.570Z,64.50
2023-02-26T11:16:52.184Z,64.90
2023-02-26T11:19:33.254Z,65.10
2023-02-26T11:22:05.186Z,65.40
2023-02-26T11:24:53.508Z,65.70
2023-02-26T11:27:37.806Z,66.10
2023-02-26T11:30:32.129Z,65.70
2023-02-26T11:33:19.421Z,66.70
2023-02-26T11:35:50.059Z,67.00
2023-02-26T11:38:26.619Z,67.50
2023-02-26T11:40:59.632Z,67.60
2023-02-26T11:43:46.117Z,67.90
2023-02-26T11:46:16.786Z,68.40
2023-02-26T11:48:50.447Z,68.60
2023-02-26T11:51:28.279Z,69.00
2023-02-26T11:54:03.723Z,69.20
2023-02-26T11:56:45.670Z,69.60
2023-02-26T11:59:25.505Z,69.60
2023-02-26T12:01:55.779Z,69.90
2023-02-26T12:04:29.035Z,70.20
2023-02-26T12:06:58.763Z,70.80
2023-02-26T12:09:29.088Z,71.10
2023-02-26T12:12:15.481Z,71.60
2023-02-26T12:15:10.537Z,71.80
2023-02-26T12:18:20.484Z,72.10
2023-02-26T12:21:03.574Z,72.20
2023-02-26T12:24:05.865Z,72.20
2023-02-26T12:27:04.987Z,72.50
2023-02-26T12:29:46.057Z,72.60
2023-02-26T12:32:45.307Z,72.60
2023-02-26T12:36:07.277Z,72.90
2023-02-26T12:38:42.199Z,73.30
2023-02-26T12:41:46.632Z,73.60
2023-02-26T12:45:05.711Z,73.60
2023-02-26T12:48:00.631Z,73.80
2023-02-26T12:51:16.444Z,74.20
2023-02-26T12:54:17.606Z,74.20
2023-02-26T12:57:06.644Z,74.40
2023-02-26T13:00:33.553Z,74.70
2023-02-26T13:03:57.504Z,74.90
2023-02-26T13:07:02.769Z,74.90
2023-02-26T13:10:21.352Z,75.10
2023-02-26T13:13:34.492Z,75.40
2023-02-26T13:16:49.696Z,75.90
2023-02-26T13:19:30.204Z,75.60
2023-02-26T13:22:18.288Z,76.00
2023-02-26T13:25:24.770Z,76.00
2023-02-26T13:28:01.098Z,76.30
2023-02-26T13:30:48.513Z,76.50
2023-02-26T13:33:28.276Z,76.60
2023-02-26T13:36:03.180Z,76.70
2023-02-26T13:39:14.919Z,76.50
2023-02-26T13:42:08.446Z,76.40
2023-02-26T13:44:37.830Z,76.30
2023-02-26T13:47:43.456Z,76.20
2023-02-26T13:50:48.625Z,76.10
2023-02-26T13:53:32.333Z,76.10
2023-02-26T13:56:37.462Z,76.30
2023-02-26T13:59:20.152Z,76.10
2023-02-26T14:01:55.171Z,76.20
2023-02-26T14:04:27.839Z,76.30
2023-02-26T14:07:09.501Z,76.50
2023-02-26T14:09:49.679Z,76.40
2023-02-26T14:12:18.844Z,76.60
2023-02-26T14:15:15.250Z,76.60
2023-02-26T14:18:04.633Z,76.80
2023-02-26T14:20:40.237Z,76.70
2023-02-26T14:23:35.355Z,77.00
2023-02-26T14:26:19.787Z,77.20
2023-02-26T14:29:08.339Z,77.10
2023-02-26T14:31:56.584Z,77.50
2023-02-26T14:34:32.053Z,77.30
2023-02-26T14:37:13.166Z,77.60
2023-02-26T14:40:24.104Z,77.60
2023-02-26T14:43:06.193Z,78.20
2023-02-26T14:45:43.448Z,77.90
2023-02-26T14:48:26.349Z,78.00
2023-02-26T14:51:20.080Z,78.10
2023-02-26T14:54:33.381Z,78.10
2023-02-26T14:57:43.417Z,78.10
2023-02-26T15:00:45.344Z,78.10
2023-02-26T15:03:51.573Z,78.70
2023-02-26T15:07:00.798Z,79.00
2023-02-26T15:10:17.925Z,79.20
2023-02-26T15:13:14.217Z,79.40
2023-02-26T15:16:27.789Z,79.80
2023-02-26T15:19:38.195Z,80.00
2023-02-26T15:22:58.120Z,80.10
2023-02-26T15:25:41.504Z,80.20
2023-02-26T15:28:39.732Z,80.80
2023-02-26T15:31:16.691Z,80.60
2023-02-26T15:33:48.801Z,80.70
2023-02-26T15:36:25.555Z,81.00
2023-02-26T15:39:10.248Z,81.30
2023-02-26T15:41:44.188Z,81.40
2023-02-26T15:44:24.781Z,81.80
2023-02-26T15:47:11.135Z,81.80
2023-02-26T15:49:49.446Z,82.20
2023-02-26T15:52:24.004Z,82.60
2023-02-26T15:55:04.206Z,82.40
2023-02-26T15:57:37.763Z,82.60
2023-02-26T16:00:27.544Z,82.80
2023-02-26T16:02:59.892Z,83.10
2023-02-26T16:05:30.719Z,83.30
2023-02-26T16:08:00.100Z,83.40
2023-02-26T16:10:35.587Z,83.20
2023-02-26T16:13:06.492Z,83.50
2023-02-26T16:15:40.711Z,83.80
2023-02-26T16:18:18.387Z,84.10
2023-02-26T16:20:51.847Z,84.00
2023-02-26T16:23:46.425Z,84.00
2023-02-26T16:26:37.034Z,84.30
2023-02-26T16:29:22.749Z,84.40
2023-02-26T16:32:00.106Z,84.50
2023-02-26T16:34:56.653Z,84.60
2023-02-26T16:37:32.702Z,84.60
2023-02-26T16:40:18.685Z,84.90
2023-02-26T16:43:07.382Z,85.20
2023-02-26T16:45:39.290Z,85.20
2023-02-26T16:48:56.208Z,85.20
2023-02-26T16:51:31.373Z,85.20
2023-02-26T16:54:28.991Z,85.00
2023-02-26T16:57:14.954Z,84.70
2023-02-26T16:59:47.188Z,84.30
2023-02-26T17:02:23.277Z,84.00
2023-02-26T17:05:01.441Z,83.90
2023-02-26T17:07:37.587Z,84.10
2023-02-26T17:10:24.128Z,84.00
2023-02-26T17:13:02.672Z,83.90
2023-02-26T17:15:40.025Z,84.10
2023-02-26T17:18:09.564Z,84.10
2023-02-26T17:20:40.064Z,83.90
2023-02-26T17:23:10.673Z,83.90
2023-02-26T17:25:53.429Z,83.70
2023-02-26T17:28:36.452Z,83.80
2023-02-26T17:31:06.782Z,83.70
2023-02-26T17:33:38.141Z,83.70
2023-02-26T17:36:08.472Z,83.70
2023-02-26T17:38:37.665Z,83.50
2023-02-26T17:41:06.893Z,83.50
2023-02-26T17:43:36.255Z,83.60
2023-02-26T17:46:06.718Z,83.60
2023-02-26T17:48:36.537Z,83.80
2023-02-26T17:51:06.103Z,83.70
2023-02-26T17:53:41.803Z,83.70
2023-02-26T17:56:21.734Z,83.70
2023-02-26T17:58:52.862Z,83.90
2023-02-26T18:01:25.041Z,83.80
2023-02-26T18:03:55.698Z,83.60
2023-02-26T18:06:26.789Z,83.80
2023-02-26T18:08:56.183Z,83.70
2023-02-26T18:11:27.008Z,83.30
2023-02-26T18:13:56.435Z,83.20
2023-02-26T18:16:34.255Z,82.70
2023-02-26T18:19:03.992Z,82.10
2023-02-26T18:21:34.236Z,81.50
2023-02-26T18:24:03.943Z,81.00
2023-02-26T18:26:34.822Z,80.70
2023-02-26T18:29:04.093Z,79.80
2023-02-26T18:31:36.766Z,79.70
2023-02-26T18:34:07.380Z,79.30
2023-02-26T18:36:38.608Z,78.60
2023-02-26T18:39:14.580Z,78.40
2023-02-26T18:41:43.876Z,78.20
2023-02-26T18:44:13.256Z,78.40
2023-02-26T18:46:43.689Z,78.20
2023-02-26T18:49:23.320Z,78.30
2023-02-26T18:51:52.849Z,78.40
2023-02-26T18:54:22.212Z,78.30
2023-02-26T18:56:51.366Z,78.40
2023-02-26T18:59:20.691Z,78.50
2023-02-26T19:01:50.190Z,78.50
2023-02-26T19:04:19.323Z,78.80
2023-02-26T19:06:48.655Z,78.80
2023-02-26T19:09:17.773Z,79.00
2023-02-26T19:11:46.955Z,79.20
2023-02-26T19:14:16.152Z,79.30
2023-02-26T19:16:45.303Z,79.60
2023-02-26T19:19:15.043Z,79.90
2023-02-26T19:21:44.273Z,80.20
2023-02-26T19:24:15.120Z,80.40
2023-02-26T19:26:45.446Z,80.70
2023-02-26T19:29:20.488Z,81.00
2023-02-26T19:31:49.836Z,81.30
2023-02-26T19:34:19.162Z,81.50
2023-02-26T19:36:51.389Z,81.50
2023-02-26T19:39:21.039Z,81.50
2023-02-26T19:41:55.032Z,81.70
2023-02-26T19:44:28.423Z,81.70
2023-02-26T19:46:57.669Z,81.80
2023-02-26T19:49:27.497Z,82.10
2023-02-26T19:51:56.660Z,82.30
2023-02-26T19:54:26.103Z,82.30
2023-02-26T19:56:55.328Z,82.60
2023-02-26T19:59:24.495Z,82.70
2023-02-26T20:01:53.703Z,82.70
2023-02-26T20:04:22.816Z,82.70
2023-02-26T20:06:52.135Z,83.10
2023-02-26T20:09:21.342Z,83.30
2023-02-26T20:11:51.387Z,83.40
2023-02-26T20:14:20.529Z,83.30
2023-02-26T20:16:49.706Z,83.60
2023-02-26T20:19:19.550Z,83.50
2023-02-26T20:21:49.778Z,83.40
2023-02-26T20:24:20.950Z,83.40
2023-02-26T20:26:50.144Z,83.60
2023-02-26T20:29:19.599Z,83.70
2023-02-26T20:31:50.887Z,83.80
2023-02-26T20:34:21.213Z,84.10
2023-02-26T20:36:51.764Z,84.20
2023-02-26T20:39:22.789Z,84.10
2023-02-26T20:41:51.932Z,84.10
2023-02-26T20:44:21.027Z,84.20
2023-02-26T20:46:50.358Z,84.50
2023-02-26T20:49:20.693Z,84.50
2023-02-26T20:51:51.466Z,84.40
2023-02-26T20:54:23.841Z,84.60
2023-02-26T20:56:53.262Z,85.30
2023-02-26T20:59:22.778Z,85.40
2023-02-26T21:01:53.012Z,86.10
2023-02-26T21:04:22.426Z,86.40
2023-02-26T21:06:51.667Z,86.50
2023-02-26T21:09:20.817Z,87.00
2023-02-26T21:11:49.964Z,87.00
2023-02-26T21:14:19.139Z,87.00
2023-02-26T21:16:48.335Z,87.40
2023-02-26T21:19:17.520Z,87.60
2023-02-26T21:21:46.629Z,87.20
2023-02-26T21:24:15.760Z,87.00
2023-02-26T21:26:44.939Z,86.60
2023-02-26T21:29:14.033Z,87.10
2023-02-26T21:31:43.249Z,86.90
2023-02-26T21:34:32.747Z,86.90
2023-02-26T21:37:11.234Z,86.90
2023-02-26T21:39:40.564Z,87.60
2023-02-26T21:42:13.436Z,87.10
2023-02-26T21:44:42.828Z,86.90
2023-02-26T21:47:13.545Z,86.50
2023-02-26T21:49:42.702Z,86.60
2023-02-26T21:52:13.582Z,86.40
2023-02-26T21:54:42.758Z,86.20
2023-02-26T21:57:12.023Z,85.80
2023-02-26T21:59:41.207Z,85.70
2023-02-26T22:02:12.858Z,85.50
2023-02-26T22:04:43.065Z,85.20
2023-02-26T22:07:12.228Z,84.70
2023-02-26T22:09:41.403Z,84.40
2023-02-26T22:12:10.512Z,84.20
2023-02-26T22:14:39.715Z,84.00
2023-02-26T22:17:08.986Z,84.20
2023-02-26T22:19:38.414Z,84.10
2023-02-26T22:22:07.593Z,84.00
2023-02-26T22:24:37.587Z,84.30
2023-02-26T22:27:06.682Z,84.30
2023-02-26T22:29:35.870Z,84.30
2023-02-26T22:32:05.106Z,84.40
2023-02-26T22:34:35.255Z,84.60
2023-02-26T22:37:04.974Z,84.80
2023-02-26T22:39:34.240Z,84.80
2023-02-26T22:42:03.639Z,85.00
2023-02-26T22:44:32.795Z,85.20
2023-02-26T22:47:02.717Z,85.10
2023-02-26T22:49:31.915Z,85.30
2023-02-26T22:52:01.091Z,86.00
2023-02-26T22:54:30.392Z,85.90
2023-02-26T22:56:59.592Z,85.80
2023-02-26T22:59:28.757Z,86.50
2023-02-26T23:01:57.955Z,86.20
2023-02-26T23:04:27.432Z,86.50
2023-02-26T23:06:56.606Z,86.40
2023-02-26T23:09:25.880Z,86.10
2023-02-26T23:11:55.251Z,86.30
2023-02-26T23:14:25.196Z,85.90
2023-02-26T23:16:54.693Z,86.70
2023-02-26T23:19:23.889Z,87.20
2023-02-26T23:21:53.418Z,87.40
2023-02-26T23:24:22.609Z,87.60
2023-02-26T23:26:52.137Z,88.20
2023-02-26T23:29:21.512Z,87.50
2023-02-26T23:31:50.863Z,88.10
2023-02-26T23:34:20.431Z,88.00
2023-02-26T23:36:49.646Z,87.70
2023-02-26T23:39:18.948Z,88.10
2023-02-26T23:41:48.191Z,88.50
2023-02-26T23:44:17.356Z,88.90
2023-02-26T23:46:46.851Z,88.60
2023-02-26T23:49:18.668Z,89.50
2023-02-26T23:51:48.611Z,89.70
2023-02-26T23:54:17.840Z,89.40
2023-02-26T23:56:47.518Z,89.80
2023-02-26T23:59:18.869Z,89.50
